createdAt,value
2022-10-17T00:01:08.670Z,74.09
2022-10-17T00:03:38.334Z,74.00
2022-10-17T00:06:12.263Z,73.98
2022-10-17T00:08:41.579Z,73.66
2022-10-17T00:11:20.297Z,74.47
2022-10-17T00:13:51.460Z,74.32
2022-10-17T00:16:33.882Z,74.80
2022-10-17T00:19:01.664Z,73.59
2022-10-17T00:21:29.472Z,74.09
2022-10-17T00:23:57.306Z,73.19
2022-10-17T00:26:25.098Z,73.19
2022-10-17T00:28:53.560Z,73.07
2022-10-17T00:31:24.020Z,73.06
2022-10-17T00:33:52.861Z,72.93
2022-10-17T00:36:26.729Z,72.68
2022-10-17T00:38:59.236Z,72.27
2022-10-17T00:41:33.816Z,72.28
2022-10-17T00:44:06.339Z,72.59
2022-10-17T00:46:39.333Z,72.49
2022-10-17T00:49:12.778Z,72.13
2022-10-17T00:52:11.875Z,73.88
2022-10-17T00:54:58.237Z,73.64
2022-10-17T00:57:29.494Z,73.22
2022-10-17T01:00:00.372Z,73.15
2022-10-17T01:02:28.799Z,73.37
2022-10-17T01:04:59.618Z,73.82
2022-10-17T01:07:33.157Z,73.99
2022-10-17T01:10:06.568Z,73.10
2022-10-17T01:12:56.930Z,73.71
2022-10-17T01:15:38.334Z,73.33
2022-10-17T01:18:19.941Z,73.90
2022-10-17T01:21:06.269Z,73.56
2022-10-17T01:24:00.382Z,74.72
2022-10-17T01:27:08.080Z,75.12
2022-10-17T01:30:13.760Z,74.71
2022-10-17T01:32:54.051Z,74.24
2022-10-17T01:35:44.873Z,74.52
2022-10-17T01:38:39.957Z,73.82
2022-10-17T01:41:36.279Z,74.19
2022-10-17T01:44:18.241Z,73.53
2022-10-17T01:47:05.577Z,73.96
2022-10-17T01:49:37.700Z,73.32
2022-10-17T01:52:24.791Z,73.43
2022-10-17T01:55:18.437Z,73.86
2022-10-17T01:58:01.218Z,74.12
2022-10-17T02:00:32.503Z,73.94
2022-10-17T02:03:06.416Z,74.04
2022-10-17T02:05:40.588Z,74.27
2022-10-17T02:08:08.776Z,74.14
2022-10-17T02:16:58.546Z,74.39
2022-10-17T02:19:46.703Z,75.10
2022-10-17T02:22:54.130Z,74.86
2022-10-17T02:25:45.977Z,74.30
2022-10-17T02:28:29.264Z,74.73
2022-10-17T02:31:29.287Z,74.38
2022-10-17T02:34:13.444Z,74.70
2022-10-17T02:36:51.273Z,73.73
2022-10-17T02:39:23.434Z,74.41
2022-10-17T02:41:55.300Z,74.25
2022-10-17T02:44:24.516Z,73.96
2022-10-17T02:47:18.398Z,73.50
2022-10-17T02:49:52.659Z,73.44
2022-10-17T02:52:38.510Z,73.70
2022-10-17T02:55:48.407Z,73.57
2022-10-17T02:58:23.940Z,73.13
2022-10-17T03:00:52.943Z,73.59
2022-10-17T03:03:30.875Z,73.94
2022-10-17T03:06:02.268Z,73.93
2022-10-17T03:08:30.430Z,74.39
2022-10-17T03:10:58.277Z,73.94
2022-10-17T03:13:30.635Z,73.97
2022-10-17T03:15:58.883Z,73.90
2022-10-17T03:18:26.735Z,74.28
2022-10-17T03:20:59.114Z,74.47
2022-10-17T03:23:26.989Z,75.18
2022-10-17T03:25:54.777Z,74.70
2022-10-17T03:28:23.486Z,74.70
2022-10-17T03:30:51.229Z,74.16
2022-10-17T03:33:19.114Z,74.06
2022-10-17T03:35:47.008Z,74.25
2022-10-17T03:38:14.994Z,74.05
2022-10-17T03:40:42.787Z,74.18
2022-10-17T03:43:11.958Z,74.44
2022-10-17T03:45:41.445Z,73.97
2022-10-17T03:48:09.297Z,73.74
2022-10-17T03:50:36.989Z,73.58
2022-10-17T03:53:04.842Z,73.85
2022-10-17T03:55:32.544Z,74.41
2022-10-17T03:58:00.307Z,74.15
2022-10-17T04:00:28.754Z,74.12
2022-10-17T04:02:59.275Z,74.18
2022-10-17T04:05:27.849Z,73.92
2022-10-17T04:07:58.761Z,74.51
2022-10-17T04:10:48.599Z,74.12
2022-10-17T04:13:16.337Z,74.15
2022-10-17T04:16:08.462Z,74.29
2022-10-17T04:18:42.483Z,74.34
2022-10-17T04:21:12.503Z,74.29
2022-10-17T04:23:41.011Z,74.54
2022-10-17T04:26:19.949Z,73.99
2022-10-17T04:28:47.734Z,74.24
2022-10-17T04:31:16.568Z,73.93
2022-10-17T04:34:04.201Z,73.53
2022-10-17T04:36:32.339Z,73.64
2022-10-17T04:39:05.951Z,73.57
2022-10-17T04:41:34.158Z,73.41
2022-10-17T04:44:03.051Z,73.64
2022-10-17T04:46:35.053Z,74.35
2022-10-17T04:49:03.567Z,73.37
2022-10-17T04:51:31.658Z,73.21
2022-10-17T04:54:19.710Z,74.31
2022-10-17T04:56:51.664Z,74.06
2022-10-17T04:59:19.566Z,73.82
2022-10-17T05:01:50.306Z,74.00
2022-10-17T05:04:22.353Z,73.97
2022-10-17T05:06:54.118Z,74.26
2022-10-17T05:09:40.767Z,74.01
2022-10-17T05:12:10.392Z,74.28
2022-10-17T05:14:41.504Z,73.83
2022-10-17T05:17:09.236Z,74.51
2022-10-17T05:19:38.092Z,74.35
2022-10-17T05:22:07.549Z,74.42
2022-10-17T05:24:35.283Z,75.19
2022-10-17T05:27:03.194Z,75.05
2022-10-17T05:29:31.309Z,75.31
2022-10-17T05:32:07.492Z,75.36
2022-10-17T05:34:36.135Z,75.44
2022-10-17T05:37:03.904Z,75.02
2022-10-17T05:39:33.466Z,75.51
2022-10-17T05:42:01.332Z,75.86
2022-10-17T05:44:29.651Z,76.25
2022-10-17T05:47:00.324Z,76.66
2022-10-17T05:49:45.040Z,75.76
2022-10-17T05:52:17.526Z,76.36
2022-10-17T05:54:57.203Z,75.63
2022-10-17T05:57:26.652Z,76.05
2022-10-17T05:59:54.887Z,76.66
2022-10-17T06:02:23.039Z,76.53
2022-10-17T06:04:51.110Z,75.97
2022-10-17T06:07:21.290Z,75.46
2022-10-17T06:09:49.932Z,76.75
2022-10-17T06:12:17.899Z,76.46
2022-10-17T06:14:46.644Z,76.53
2022-10-17T06:17:16.352Z,76.36
2022-10-17T06:19:45.292Z,75.90
2022-10-17T06:22:15.488Z,76.41
2022-10-17T06:24:47.083Z,75.89
2022-10-17T06:27:15.617Z,76.82
2022-10-17T06:29:43.298Z,75.88
2022-10-17T06:32:14.949Z,75.76
2022-10-17T06:34:45.920Z,75.60
2022-10-17T06:37:13.730Z,76.13
2022-10-17T06:39:42.895Z,75.70
2022-10-17T06:42:17.013Z,76.72
2022-10-17T06:44:48.691Z,76.36
2022-10-17T06:47:36.069Z,75.80
2022-10-17T06:50:13.289Z,75.67
2022-10-17T06:52:52.294Z,75.62
2022-10-17T08:18:13.864Z,76.13
2022-10-17T08:20:42.677Z,75.38
2022-10-17T08:23:10.682Z,73.32
2022-10-17T08:25:39.974Z,68.69
2022-10-17T08:30:40.454Z,70.72
2022-10-17T08:33:08.159Z,70.53
2022-10-17T08:35:36.174Z,66.44
2022-10-17T08:38:04.477Z,67.68
2022-10-17T08:40:33.894Z,63.71
2022-10-17T08:43:12.296Z,65.36
2022-10-17T08:46:02.922Z,62.98
2022-10-17T08:48:42.729Z,64.98
2022-10-17T08:51:26.118Z,63.20
2022-10-17T08:54:44.271Z,60.94
2022-10-17T08:57:17.456Z,60.89
2022-10-17T08:59:52.090Z,63.91
2022-10-17T09:02:52.182Z,58.83
2022-10-17T09:05:32.735Z,57.90
2022-10-17T09:08:05.401Z,60.24
2022-10-17T09:10:49.480Z,56.94
2022-10-17T09:13:41.413Z,56.36
2022-10-17T09:16:45.034Z,57.63
2022-10-17T09:19:43.077Z,56.97
2022-10-17T09:22:23.088Z,57.61
2022-10-17T09:24:55.974Z,59.86
2022-10-17T09:28:03.646Z,58.13
2022-10-17T09:30:56.854Z,57.85
2022-10-17T09:33:56.633Z,54.10
2022-10-17T09:36:36.060Z,55.52
2022-10-17T09:39:24.778Z,55.98
2022-10-17T09:41:56.991Z,55.90
2022-10-17T09:44:57.551Z,55.41
2022-10-17T09:47:45.927Z,54.77
2022-10-17T09:50:32.732Z,54.39
2022-10-17T09:53:15.106Z,54.16
2022-10-17T09:55:56.171Z,53.73
2022-10-17T09:58:24.649Z,55.03
2022-10-17T10:00:52.349Z,55.37
2022-10-17T10:03:25.124Z,54.91
2022-10-17T10:06:18.247Z,53.85
2022-10-17T10:08:58.807Z,53.90
2022-10-17T10:11:51.312Z,54.81
2022-10-17T10:14:37.717Z,54.71
2022-10-17T10:17:25.740Z,56.98
2022-10-17T10:19:54.242Z,56.77
2022-10-17T10:22:23.935Z,55.12
2022-10-17T10:25:17.637Z,54.10
2022-10-17T10:27:47.794Z,55.02
2022-10-17T10:30:21.279Z,55.02
2022-10-17T10:35:37.674Z,55.36
2022-10-17T10:38:16.622Z,55.36
2022-10-17T10:40:52.490Z,55.40
2022-10-17T10:43:29.928Z,54.31
2022-10-17T10:45:58.440Z,55.52
2022-10-17T10:48:32.611Z,55.23
2022-10-17T10:51:14.395Z,53.16
2022-10-17T10:53:54.635Z,53.17
2022-10-17T10:56:37.401Z,54.10
2022-10-17T10:59:37.249Z,53.86
2022-10-17T11:02:26.767Z,54.04
2022-10-17T11:05:20.667Z,54.39
2022-10-17T11:08:12.080Z,54.21
2022-10-17T11:11:27.798Z,53.33
2022-10-17T11:14:03.731Z,54.07
2022-10-17T11:16:42.038Z,54.01
2022-10-17T11:19:24.826Z,52.96
2022-10-17T11:22:26.642Z,53.28
2022-10-17T11:25:33.139Z,52.96
2022-10-17T11:28:10.776Z,52.78
2022-10-17T11:31:07.965Z,52.02
2022-10-17T11:33:58.940Z,51.06
2022-10-17T11:36:32.799Z,51.67
2022-10-17T11:39:08.930Z,51.00
2022-10-17T11:42:03.518Z,50.45
2022-10-17T11:44:41.394Z,50.30
2022-10-17T11:47:16.566Z,49.79
2022-10-17T11:49:52.239Z,48.83
2022-10-17T11:55:31.162Z,47.80
2022-10-17T11:58:26.780Z,46.80
2022-10-17T12:01:18.736Z,47.48
2022-10-17T12:04:34.181Z,46.19
2022-10-17T12:07:24.787Z,46.25
2022-10-17T12:10:35.932Z,45.90
2022-10-17T12:13:28.810Z,47.36
2022-10-17T12:16:18.259Z,48.12
2022-10-17T12:18:47.401Z,45.22
2022-10-17T12:21:15.585Z,47.86
2022-10-17T12:23:54.233Z,46.12
2022-10-17T12:26:31.206Z,46.38
2022-10-17T12:28:59.258Z,43.36
2022-10-17T12:31:33.665Z,45.40
2022-10-17T12:34:04.799Z,44.29
2022-10-17T12:36:32.391Z,45.18
2022-10-17T12:39:03.135Z,44.57
2022-10-17T12:41:39.703Z,42.99
2022-10-17T12:44:14.035Z,43.74
2022-10-17T12:46:52.771Z,42.28
2022-10-17T12:49:45.722Z,43.49
2022-10-17T12:52:29.651Z,45.77
2022-10-17T12:55:17.608Z,42.25
2022-10-17T12:57:50.759Z,44.83
2022-10-17T13:01:11.628Z,42.50
2022-10-17T13:03:47.734Z,42.82
2022-10-17T13:06:28.112Z,42.14
2022-10-17T13:09:05.573Z,42.74
2022-10-17T13:11:37.921Z,43.71
2022-10-17T13:14:15.298Z,42.44
2022-10-17T13:16:59.348Z,43.58
2022-10-17T13:19:42.063Z,44.64
2022-10-17T13:22:28.325Z,42.63
2022-10-17T13:25:09.879Z,42.13
2022-10-17T13:27:37.948Z,44.51
2022-10-17T13:30:29.357Z,39.77
2022-10-17T13:33:01.521Z,40.90
2022-10-17T13:35:58.872Z,43.65
2022-10-17T13:38:29.664Z,42.81
2022-10-17T13:41:02.034Z,42.87
2022-10-17T13:43:45.012Z,40.29
2022-10-17T13:46:37.970Z,40.49
2022-10-17T13:49:36.994Z,40.74
2022-10-17T13:52:07.747Z,39.18
2022-10-17T13:54:42.423Z,40.33
2022-10-17T13:57:29.130Z,39.65
2022-10-17T14:00:23.603Z,38.85
2022-10-17T14:02:51.334Z,41.02
2022-10-17T14:05:23.395Z,40.75
2022-10-17T14:10:44.436Z,41.19
2022-10-17T14:13:24.672Z,38.08
2022-10-17T14:15:55.318Z,39.00
2022-10-17T14:18:36.389Z,38.20
2022-10-17T14:24:13.632Z,38.35
2022-10-17T14:27:00.665Z,39.94
2022-10-17T14:29:51.090Z,38.66
2022-10-17T14:32:20.267Z,41.41
2022-10-17T14:35:01.413Z,38.90
2022-10-17T14:37:41.390Z,38.33
2022-10-17T14:40:24.062Z,38.56
2022-10-17T14:42:55.333Z,41.53
2022-10-17T14:45:39.690Z,40.08
2022-10-17T14:48:15.289Z,41.90
2022-10-17T14:51:14.247Z,40.52
2022-10-17T14:54:01.651Z,41.58
2022-10-17T14:56:53.571Z,40.61
2022-10-17T14:59:48.526Z,41.64
2022-10-17T15:02:12.248Z,43.24
2022-10-17T15:04:39.859Z,43.54
2022-10-17T15:07:07.658Z,43.09
2022-10-17T15:09:35.378Z,43.65
2022-10-17T15:12:10.774Z,44.25
2022-10-17T15:14:38.420Z,44.33
2022-10-17T15:17:24.366Z,44.50
2022-10-17T15:19:52.344Z,45.09
2022-10-17T15:22:20.110Z,44.09
2022-10-17T15:24:48.406Z,45.38
2022-10-17T15:27:20.724Z,45.64
2022-10-17T15:29:49.942Z,46.19
2022-10-17T15:32:17.745Z,46.85
2022-10-17T15:34:45.547Z,47.32
2022-10-17T15:37:24.327Z,48.19
2022-10-17T15:39:55.254Z,48.67
2022-10-17T15:42:28.583Z,49.05
2022-10-17T15:44:57.231Z,49.69
2022-10-17T15:47:33.946Z,50.95
2022-10-17T15:50:03.199Z,51.01
2022-10-17T15:52:30.998Z,51.24
2022-10-17T15:55:00.994Z,51.59
2022-10-17T15:57:40.055Z,52.53
2022-10-17T16:00:22.265Z,53.32
2022-10-17T16:02:50.876Z,52.56
2022-10-17T16:05:25.642Z,53.46
2022-10-17T16:07:54.502Z,53.30
2022-10-17T16:10:23.576Z,53.50
2022-10-17T16:12:51.634Z,53.68
2022-10-17T16:15:28.603Z,55.44
2022-10-17T16:18:00.441Z,54.47
2022-10-17T16:20:31.818Z,54.83
2022-10-17T16:23:02.424Z,55.28
2022-10-17T16:25:32.115Z,55.51
2022-10-17T16:28:01.043Z,55.89
2022-10-17T16:30:31.866Z,57.29
2022-10-17T16:32:59.852Z,56.67
2022-10-17T16:35:33.354Z,57.56
2022-10-17T16:38:06.890Z,58.70
2022-10-17T16:40:38.964Z,61.05
2022-10-17T16:43:07.969Z,58.32
2022-10-17T16:45:36.622Z,58.95
2022-10-17T16:48:04.828Z,59.28
2022-10-17T16:50:35.665Z,59.03
2022-10-17T16:53:04.028Z,60.09
2022-10-17T16:55:31.768Z,59.67
2022-10-17T16:58:00.156Z,59.99
2022-10-17T17:00:28.017Z,60.56
2022-10-17T17:02:55.754Z,60.47
2022-10-17T17:05:23.557Z,61.90
2022-10-17T17:07:51.606Z,62.96
2022-10-17T17:10:19.381Z,61.41
2022-10-17T17:12:47.191Z,61.89
2022-10-17T17:15:14.966Z,62.27
2022-10-17T17:17:51.240Z,61.77
2022-10-17T17:20:21.150Z,62.28
2022-10-17T17:22:50.863Z,62.57
2022-10-17T17:25:18.661Z,62.53
2022-10-17T17:27:46.351Z,62.46
2022-10-17T17:30:14.187Z,63.04
2022-10-17T17:32:41.931Z,62.60
2022-10-17T17:35:10.092Z,62.00
2022-10-17T17:37:37.867Z,62.57
2022-10-17T17:40:06.567Z,64.18
2022-10-17T17:42:34.239Z,64.11
2022-10-17T17:45:02.062Z,63.52
2022-10-17T17:47:30.156Z,63.98
2022-10-17T17:49:58.133Z,64.49
2022-10-17T17:52:25.920Z,64.47
2022-10-17T17:54:53.742Z,64.34
2022-10-17T17:57:21.650Z,64.30
2022-10-17T17:59:50.164Z,63.82
2022-10-17T18:02:17.938Z,64.60
2022-10-17T18:04:45.754Z,65.02
2022-10-17T18:07:13.424Z,65.01
2022-10-17T18:09:41.312Z,64.85
2022-10-17T18:12:09.579Z,64.39
2022-10-17T18:14:37.537Z,64.98
2022-10-17T18:17:05.247Z,64.95
2022-10-17T18:19:32.963Z,64.62
2022-10-17T18:22:00.665Z,64.98
2022-10-17T18:24:28.399Z,65.80
2022-10-17T18:26:59.750Z,65.91
2022-10-17T18:29:29.569Z,66.27
2022-10-17T18:31:57.319Z,66.01
2022-10-17T18:34:27.245Z,66.30
2022-10-17T18:36:55.094Z,65.98
2022-10-17T18:39:23.048Z,66.89
2022-10-17T18:41:50.732Z,66.31
2022-10-17T18:44:18.443Z,66.40
2022-10-17T18:46:47.051Z,67.15
2022-10-17T18:49:20.404Z,68.68
2022-10-17T18:51:48.144Z,67.84
2022-10-17T18:54:21.273Z,67.65
2022-10-17T18:56:54.608Z,68.52
2022-10-17T18:59:22.892Z,67.11
2022-10-17T19:01:50.808Z,67.40
2022-10-17T19:04:18.615Z,67.27
2022-10-17T19:06:46.435Z,68.01
2022-10-17T19:09:15.829Z,67.30
2022-10-17T19:11:44.137Z,67.01
2022-10-17T19:14:13.581Z,67.00
2022-10-17T19:16:46.846Z,67.10
2022-10-17T19:19:19.930Z,66.75
2022-10-17T19:21:49.088Z,67.33
2022-10-17T19:24:26.073Z,67.91
2022-10-17T19:26:59.736Z,67.79
2022-10-17T19:29:31.392Z,67.23
2022-10-17T19:32:00.546Z,67.43
2022-10-17T19:34:28.350Z,68.37
2022-10-17T19:36:56.015Z,68.94
2022-10-17T19:39:25.177Z,68.19
2022-10-17T19:41:53.014Z,68.52
2022-10-17T19:44:20.806Z,68.69
2022-10-17T19:46:49.437Z,68.14
2022-10-17T19:49:18.114Z,68.26
2022-10-17T19:51:45.946Z,68.35
2022-10-17T19:54:15.201Z,68.05
2022-10-17T19:56:43.596Z,67.84
2022-10-17T19:59:14.653Z,68.50
2022-10-17T20:01:42.864Z,67.72
2022-10-17T20:04:12.414Z,67.59
2022-10-17T20:06:41.586Z,67.08
2022-10-17T20:09:14.053Z,67.14
2022-10-17T20:11:45.110Z,68.63
2022-10-17T20:14:12.843Z,68.38
2022-10-17T20:16:40.572Z,68.33
2022-10-17T20:19:12.245Z,68.51
2022-10-17T20:21:40.291Z,67.94
2022-10-17T20:24:13.459Z,67.14
2022-10-17T20:26:41.587Z,67.58
2022-10-17T20:29:16.836Z,69.67
2022-10-17T20:31:46.546Z,68.80
2022-10-17T20:34:18.026Z,69.49
2022-10-17T20:36:46.826Z,69.88
2022-10-17T20:39:18.066Z,69.13
2022-10-17T20:41:47.382Z,69.48
2022-10-17T20:44:16.128Z,70.00
2022-10-17T20:46:57.613Z,70.52
2022-10-17T20:49:30.914Z,69.74
2022-10-17T20:52:00.719Z,69.42
2022-10-17T20:54:28.732Z,70.93
2022-10-17T20:56:58.722Z,69.92
2022-10-17T20:59:28.823Z,69.58
2022-10-17T21:01:56.622Z,69.57
2022-10-17T21:07:11.931Z,69.97
2022-10-17T21:09:39.595Z,70.16
2022-10-17T21:12:07.437Z,69.43
2022-10-17T21:14:36.476Z,69.39
2022-10-17T21:17:05.511Z,69.52
2022-10-17T21:19:33.935Z,69.45
2022-10-17T21:22:01.847Z,69.44
2022-10-17T21:24:30.839Z,69.12
2022-10-17T21:26:59.403Z,69.22
2022-10-17T21:29:27.249Z,69.22
2022-10-17T21:31:55.006Z,69.60
2022-10-17T21:34:25.177Z,70.21
2022-10-17T21:36:53.441Z,70.74
2022-10-17T21:39:23.011Z,70.16
2022-10-17T21:41:51.647Z,70.48
2022-10-17T21:44:23.646Z,70.77
2022-10-17T21:46:52.441Z,70.02
2022-10-17T21:49:23.702Z,70.93
2022-10-17T21:51:53.591Z,69.72
2022-10-17T21:54:23.620Z,69.39
2022-10-17T21:56:52.448Z,69.47
2022-10-17T21:59:20.116Z,69.26
2022-10-17T22:01:47.939Z,69.71
2022-10-17T22:04:18.634Z,69.05
2022-10-17T22:06:51.225Z,68.95
2022-10-17T22:09:24.534Z,69.41
2022-10-17T22:11:56.775Z,69.41
2022-10-17T22:14:26.953Z,70.29
2022-10-17T22:16:55.584Z,70.42
2022-10-17T22:19:26.466Z,69.97
2022-10-17T22:21:55.150Z,69.66
2022-10-17T22:24:23.906Z,69.11
2022-10-17T22:26:51.923Z,69.10
2022-10-17T22:29:20.379Z,70.44
2022-10-17T22:31:48.149Z,70.30
2022-10-17T22:34:17.698Z,70.10
2022-10-17T22:36:47.737Z,70.84
2022-10-17T22:39:15.490Z,70.00
2022-10-17T22:41:43.206Z,70.73
2022-10-17T22:44:10.899Z,70.39
2022-10-17T22:46:38.906Z,70.13
2022-10-17T22:49:06.650Z,70.22
2022-10-17T22:51:34.443Z,70.26
2022-10-17T22:54:02.112Z,70.65
2022-10-17T22:56:29.895Z,70.26
2022-10-17T22:58:57.566Z,70.03
2022-10-17T23:01:26.391Z,70.35
2022-10-17T23:03:54.121Z,70.26
2022-10-17T23:06:22.726Z,69.36
2022-10-17T23:08:50.644Z,69.52
2022-10-17T23:11:18.414Z,69.47
2022-10-17T23:13:46.136Z,69.09
2022-10-17T23:16:13.911Z,69.07
2022-10-17T23:18:42.282Z,70.04
2022-10-17T23:21:10.531Z,70.15
2022-10-17T23:23:38.836Z,69.74
2022-10-17T23:26:10.781Z,70.49
2022-10-17T23:28:38.955Z,70.90
2022-10-17T23:31:19.768Z,70.02
2022-10-17T23:33:49.823Z,69.79
2022-10-17T23:36:20.556Z,69.53
2022-10-17T23:38:49.735Z,69.58
2022-10-17T23:41:18.377Z,69.59
2022-10-17T23:43:46.251Z,69.58
2022-10-17T23:46:13.992Z,69.21
2022-10-17T23:48:41.789Z,69.52
2022-10-17T23:51:11.176Z,69.70
2022-10-17T23:53:40.557Z,70.77
2022-10-17T23:56:10.445Z,71.34
2022-10-17T23:58:39.795Z,71.42
